sensor_id;sensor_type;location;lat;lon;timestamp;pressure;altitude;pressure_sealevel;temperature;humidity
70521;BME280;58442;52.716;23.560;2024-02-16T00:00:02;102261.18;;;5.31;70.22
70521;BME280;58442;52.716;23.560;2024-02-16T00:00:14;102266.30;;;5.33;70.24
70521;BME280;58442;52.716;23.560;2024-02-16T00:00:32;102267.11;;;5.33;70.24
70521;BME280;58442;52.716;23.560;2024-02-16T00:00:48;102262.80;;;5.32;70.25
70521;BME280;58442;52.716;23.560;2024-02-16T00:01:04;102267.11;;;5.33;70.25
70521;BME280;58442;52.716;23.560;2024-02-16T00:01:21;102257.97;;;5.29;70.33
70521;BME280;58442;52.716;23.560;2024-02-16T00:01:32;102260.91;;;5.33;70.26
70521;BME280;58442;52.716;23.560;2024-02-16T00:01:43;102265.50;;;5.32;70.26
70521;BME280;58442;52.716;23.560;2024-02-16T00:01:54;102260.91;;;5.33;70.26
70521;BME280;58442;52.716;23.560;2024-02-16T00:02:05;102263.60;;;5.33;70.25
70521;BME280;58442;52.716;23.560;2024-02-16T00:02:16;102260.10;;;5.32;70.25
70521;BME280;58442;52.716;23.560;2024-02-16T00:02:29;102260.10;;;5.32;70.26
70521;BME280;58442;52.716;23.560;2024-02-16T00:02:40;102265.50;;;5.32;70.26
70521;BME280;58442;52.716;23.560;2024-02-16T00:02:53;102260.10;;;5.32;70.27
70521;BME280;58442;52.716;23.560;2024-02-16T00:03:05;102258.49;;;5.31;70.28
70521;BME280;58442;52.716;23.560;2024-02-16T00:03:16;102254.70;;;5.32;70.28
70521;BME280;58442;52.716;23.560;2024-02-16T00:03:28;102263.88;;;5.31;70.27
70521;BME280;58442;52.716;23.560;2024-02-16T00:03:40;102259.30;;;5.32;70.27
70521;BME280;58442;52.716;23.560;2024-02-16T00:03:51;102259.30;;;5.32;70.27
70521;BME280;58442;52.716;23.560;2024-02-16T00:04:02;102256.60;;;5.32;70.27
70521;BME280;58442;52.716;23.560;2024-02-16T00:04:14;102259.30;;;5.32;70.25
70521;BME280;58442;52.716;23.560;2024-02-16T00:04:25;102262.80;;;5.32;70.27
70521;BME280;58442;52.716;23.560;2024-02-16T00:04:36;102265.50;;;5.32;70.26
70521;BME280;58442;52.716;23.560;2024-02-16T00:04:47;102260.10;;;5.32;70.26
70521;BME280;58442;52.716;23.560;2024-02-16T00:04:58;102254.70;;;5.32;70.26
70521;BME280;58442;52.716;23.560;2024-02-16T00:05:10;102248.51;;;5.32;70.25
70521;BME280;58442;52.716;23.560;2024-02-16T00:05:24;102254.70;;;5.32;70.27
70521;BME280;58442;52.716;23.560;2024-02-16T00:05:35;102258.49;;;5.31;70.28
70521;BME280;58442;52.716;23.560;2024-02-16T00:05:47;102259.30;;;5.32;70.28
70521;BME280;58442;52.716;23.560;2024-02-16T00:05:58;102262.80;;;5.32;70.28
70521;BME280;58442;52.716;23.560;2024-02-16T00:06:11;102253.10;;;5.31;70.28
70521;BME280;58442;52.716;23.560;2024-02-16T00:06:22;102253.10;;;5.31;70.28
70521;BME280;58442;52.716;23.560;2024-02-16T00:06:33;102249.60;;;5.31;70.29
70521;BME280;58442;52.716;23.560;2024-02-16T00:06:45;102255.80;;;5.31;70.30
70521;BME280;58442;52.716;23.560;2024-02-16T00:06:56;102253.10;;;5.31;70.30
70521;BME280;58442;52.716;23.560;2024-02-16T00:07:07;102253.10;;;5.31;70.30
70521;BME280;58442;52.716;23.560;2024-02-16T00:07:18;102253.10;;;5.31;70.30
70521;BME280;58442;52.716;23.560;2024-02-16T00:07:30;102252.30;;;5.31;70.29
70521;BME280;58442;52.716;23.560;2024-02-16T00:07:41;102253.10;;;5.31;70.28
70521;BME280;58442;52.716;23.560;2024-02-16T00:07:52;102253.10;;;5.31;70.28
70521;BME280;58442;52.716;23.560;2024-02-16T00:08:04;102253.10;;;5.31;70.28
70521;BME280;58442;52.716;23.560;2024-02-16T00:08:15;102247.71;;;5.31;70.28
70521;BME280;58442;52.716;23.560;2024-02-16T00:08:27;102250.41;;;5.31;70.28
70521;BME280;58442;52.716;23.560;2024-02-16T00:08:39;102247.71;;;5.31;70.27
70521;BME280;58442;52.716;23.560;2024-02-16T00:08:50;102249.32;;;5.32;70.27
70521;BME280;58442;52.716;23.560;2024-02-16T00:09:02;102258.49;;;5.31;70.28
70521;BME280;58442;52.716;23.560;2024-02-16T00:09:13;102253.10;;;5.31;70.27
70521;BME280;58442;52.716;23.560;2024-02-16T00:09:25;102252.30;;;5.31;70.25
70521;BME280;58442;52.716;23.560;2024-02-16T00:09:38;102247.71;;;5.31;70.25
70521;BME280;58442;52.716;23.560;2024-02-16T00:09:49;102246.91;;;5.31;70.25
70521;BME280;58442;52.716;23.560;2024-02-16T00:10:00;102253.10;;;5.31;70.25
70521;BME280;58442;52.716;23.560;2024-02-16T00:10:11;102253.91;;;5.32;70.25
70521;BME280;58442;52.716;23.560;2024-02-16T00:10:23;102253.10;;;5.31;70.25
70521;BME280;58442;52.716;23.560;2024-02-16T00:10:34;102248.80;;;5.30;70.25
70521;BME280;58442;52.716;23.560;2024-02-16T00:10:46;102253.91;;;5.32;70.25
70521;BME280;58442;52.716;23.560;2024-02-16T00:10:57;102250.41;;;5.31;70.25
70521;BME280;58442;52.716;23.560;2024-02-16T00:11:09;102249.32;;;5.32;70.26
70521;BME280;58442;52.716;23.560;2024-02-16T00:11:20;102243.41;;;5.30;70.26
70521;BME280;58442;52.716;23.560;2024-02-16T00:11:33;102252.30;;;5.31;70.25
70521;BME280;58442;52.716;23.560;2024-02-16T00:11:45;102252.02;;;5.32;70.27
70521;BME280;58442;52.716;23.560;2024-02-16T00:11:57;102253.10;;;5.31;70.25
70521;BME280;58442;52.716;23.560;2024-02-16T00:12:09;102250.41;;;5.31;70.25
70521;BME280;58442;52.716;23.560;2024-02-16T00:12:20;102253.10;;;5.31;70.25
70521;BME280;58442;52.716;23.560;2024-02-16T00:12:33;102247.71;;;5.31;70.24
70521;BME280;58442;52.716;23.560;2024-02-16T00:12:45;102250.41;;;5.31;70.23
70521;BME280;58442;52.716;23.560;2024-02-16T00:12:56;102252.02;;;5.32;70.23
70521;BME280;58442;52.716;23.560;2024-02-16T00:13:07;102249.32;;;5.32;70.23
70521;BME280;58442;52.716;23.560;2024-02-16T00:13:18;102254.70;;;5.32;70.23
70521;BME280;58442;52.716;23.560;2024-02-16T00:13:30;102255.52;;;5.33;70.22
70521;BME280;58442;52.716;23.560;2024-02-16T00:13:42;102253.10;;;5.31;70.22
70521;BME280;58442;52.716;23.560;2024-02-16T00:13:54;102252.02;;;5.32;70.21
70521;BME280;58442;52.716;23.560;2024-02-16T00:14:05;102252.02;;;5.32;70.21
70521;BME280;58442;52.716;23.560;2024-02-16T00:14:16;102253.10;;;5.31;70.21
70521;BME280;58442;52.716;23.560;2024-02-16T00:14:28;102253.91;;;5.32;70.20
70521;BME280;58442;52.716;23.560;2024-02-16T00:14:39;102247.71;;;5.31;70.20
70521;BME280;58442;52.716;23.560;2024-02-16T00:14:50;102249.32;;;5.32;70.18
70521;BME280;58442;52.716;23.560;2024-02-16T00:15:02;102249.32;;;5.32;70.18
70521;BME280;58442;52.716;23.560;2024-02-16T00:15:14;102248.80;;;5.30;70.16
70521;BME280;58442;52.716;23.560;2024-02-16T00:15:25;102248.51;;;5.32;70.15
70521;BME280;58442;52.716;23.560;2024-02-16T00:15:37;102250.41;;;5.31;70.15
70521;BME280;58442;52.716;23.560;2024-02-16T00:15:49;102252.83;;;5.33;70.15
70521;BME280;58442;52.716;23.560;2024-02-16T00:16:00;102250.41;;;5.31;70.13
70521;BME280;58442;52.716;23.560;2024-02-16T00:16:11;102253.10;;;5.31;70.14
70521;BME280;58442;52.716;23.560;2024-02-16T00:16:23;102249.60;;;5.31;70.13
70521;BME280;58442;52.716;23.560;2024-02-16T00:16:34;102251.49;;;5.30;70.14
70521;BME280;58442;52.716;23.560;2024-02-16T00:16:45;102257.69;;;5.31;70.14
70521;BME280;58442;52.716;23.560;2024-02-16T00:16:56;102256.08;;;5.30;70.15
70521;BME280;58442;52.716;23.560;2024-02-16T00:17:08;102251.49;;;5.30;70.15
70521;BME280;58442;52.716;23.560;2024-02-16T00:17:21;102253.39;;;5.30;70.16
70521;BME280;58442;52.716;23.560;2024-02-16T00:17:33;102243.68;;;5.29;70.16
70521;BME280;58442;52.716;23.560;2024-02-16T00:17:45;102246.39;;;5.29;70.17
70521;BME280;58442;52.716;23.560;2024-02-16T00:17:56;102251.77;;;5.29;70.17
70521;BME280;58442;52.716;23.560;2024-02-16T00:18:07;102256.32;;;5.28;70.17
70521;BME280;58442;52.716;23.560;2024-02-16T00:18:19;102249.08;;;5.29;70.17
70521;BME280;58442;52.716;23.560;2024-02-16T00:18:30;102251.77;;;5.29;70.18
70521;BME280;58442;52.716;23.560;2024-02-16T00:18:41;102260.66;;;5.29;70.18
70521;BME280;58442;52.716;23.560;2024-02-16T00:18:53;102253.63;;;5.28;70.18
70521;BME280;58442;52.716;23.560;2024-02-16T00:19:04;102256.32;;;5.28;70.19
70521;BME280;58442;52.716;23.560;2024-02-16T00:19:15;102259.02;;;5.28;70.18
70521;BME280;58442;52.716;23.560;2024-02-16T00:19:26;102255.28;;;5.29;70.18
70521;BME280;58442;52.716;23.560;2024-02-16T00:19:39;102256.32;;;5.28;70.19
70521;BME280;58442;52.716;23.560;2024-02-16T00:19:50;102259.02;;;5.28;70.18
70521;BME280;58442;52.716;23.560;2024-02-16T00:20:01;102255.52;;;5.28;70.18
70521;BME280;58442;52.716;23.560;2024-02-16T00:20:14;102255.52;;;5.28;70.19
70521;BME280;58442;52.716;23.560;2024-02-16T00:20:25;102252.83;;;5.28;70.19
70521;BME280;58442;52.716;23.560;2024-02-16T00:20:36;102252.83;;;5.28;70.19
70521;BME280;58442;52.716;23.560;2024-02-16T00:20:47;102253.63;;;5.28;70.21
70521;BME280;58442;52.716;23.560;2024-02-16T00:20:59;102252.83;;;5.28;70.20
70521;BME280;58442;52.716;23.560;2024-02-16T00:21:12;102254.73;;;5.27;70.21
70521;BME280;58442;52.716;23.560;2024-02-16T00:21:23;102257.42;;;5.27;70.19
70521;BME280;58442;52.716;23.560;2024-02-16T00:21:35;102253.63;;;5.28;70.19
70521;BME280;58442;52.716;23.560;2024-02-16T00:21:46;102257.42;;;5.27;70.19
70521;BME280;58442;52.716;23.560;2024-02-16T00:21:57;102254.73;;;5.27;70.20
70521;BME280;58442;52.716;23.560;2024-02-16T00:22:10;102254.73;;;5.27;70.21
70521;BME280;58442;52.716;23.560;2024-02-16T00:22:21;102255.80;;;5.26;70.20
70521;BME280;58442;52.716;23.560;2024-02-16T00:22:33;102256.61;;;5.27;70.20
70521;BME280;58442;52.716;23.560;2024-02-16T00:22:45;102256.61;;;5.27;70.20
70521;BME280;58442;52.716;23.560;2024-02-16T00:22:56;102251.22;;;5.27;70.21
70521;BME280;58442;52.716;23.560;2024-02-16T00:23:08;102255.80;;;5.26;70.22
70521;BME280;58442;52.716;23.560;2024-02-16T00:23:20;102255.00;;;5.26;70.24
70521;BME280;58442;52.716;23.560;2024-02-16T00:23:35;102255.00;;;5.26;70.24
70521;BME280;58442;52.716;23.560;2024-02-16T00:23:46;102259.59;;;5.25;70.23
70521;BME280;58442;52.716;23.560;2024-02-16T00:23:58;102258.77;;;5.25;70.24
70521;BME280;58442;52.716;23.560;2024-02-16T00:24:09;102255.28;;;5.24;70.24
70521;BME280;58442;52.716;23.560;2024-02-16T00:24:21;102262.28;;;5.25;70.25
70521;BME280;58442;52.716;23.560;2024-02-16T00:24:32;102255.28;;;5.24;70.25
70521;BME280;58442;52.716;23.560;2024-02-16T00:24:44;102256.90;;;5.25;70.25
70521;BME280;58442;52.716;23.560;2024-02-16T00:24:55;102259.59;;;5.25;70.26
70521;BME280;58442;52.716;23.560;2024-02-16T00:25:07;102253.39;;;5.25;70.27
70521;BME280;58442;52.716;23.560;2024-02-16T00:25:18;102257.98;;;5.24;70.27
70521;BME280;58442;52.716;23.560;2024-02-16T00:25:31;102262.28;;;5.25;70.27
70521;BME280;58442;52.716;23.560;2024-02-16T00:25:42;102256.90;;;5.25;70.27
70521;BME280;58442;52.716;23.560;2024-02-16T00:25:54;102258.77;;;5.25;70.28
70521;BME280;58442;52.716;23.560;2024-02-16T00:26:05;102256.90;;;5.25;70.28
70521;BME280;58442;52.716;23.560;2024-02-16T00:26:18;102256.90;;;5.25;70.27
70521;BME280;58442;52.716;23.560;2024-02-16T00:26:31;102249.61;;;5.26;70.27
70521;BME280;58442;52.716;23.560;2024-02-16T00:26:43;102254.20;;;5.25;70.28
70521;BME280;58442;52.716;23.560;2024-02-16T00:26:57;102254.20;;;5.25;70.28
70521;BME280;58442;52.716;23.560;2024-02-16T00:27:08;102258.77;;;5.25;70.29
70521;BME280;58442;52.716;23.560;2024-02-16T00:27:19;102252.59;;;5.24;70.28
70521;BME280;58442;52.716;23.560;2024-02-16T00:27:30;102248.01;;;5.25;70.27
70521;BME280;58442;52.716;23.560;2024-02-16T00:27:42;102254.20;;;5.25;70.26
70521;BME280;58442;52.716;23.560;2024-02-16T00:27:53;102255.28;;;5.24;70.27
70521;BME280;58442;52.716;23.560;2024-02-16T00:28:05;102252.59;;;5.24;70.25
70521;BME280;58442;52.716;23.560;2024-02-16T00:28:16;102252.59;;;5.24;70.25
70521;BME280;58442;52.716;23.560;2024-02-16T00:28:27;102255.28;;;5.24;70.25
70521;BME280;58442;52.716;23.560;2024-02-16T00:28:38;102257.16;;;5.24;70.26
70521;BME280;58442;52.716;23.560;2024-02-16T00:28:49;102250.70;;;5.25;70.25
70521;BME280;58442;52.716;23.560;2024-02-16T00:29:01;102254.48;;;5.24;70.25
70521;BME280;58442;52.716;23.560;2024-02-16T00:29:12;102254.48;;;5.24;70.33
70521;BME280;58442;52.716;23.560;2024-02-16T00:29:23;102251.78;;;5.24;70.24
70521;BME280;58442;52.716;23.560;2024-02-16T00:29:35;102251.78;;;5.24;70.24
70521;BME280;58442;52.716;23.560;2024-02-16T00:29:48;102255.28;;;5.24;70.25
70521;BME280;58442;52.716;23.560;2024-02-16T00:30:01;102251.78;;;5.24;70.24
70521;BME280;58442;52.716;23.560;2024-02-16T00:30:13;102242.89;;;5.23;70.24
70521;BME280;58442;52.716;23.560;2024-02-16T00:30:28;102248.27;;;5.23;70.26
70521;BME280;58442;52.716;23.560;2024-02-16T00:30:39;102250.98;;;5.23;70.25
70521;BME280;58442;52.716;23.560;2024-02-16T00:30:52;102250.16;;;5.23;70.27
70521;BME280;58442;52.716;23.560;2024-02-16T00:31:03;102248.27;;;5.23;70.28
70521;BME280;58442;52.716;23.560;2024-02-16T00:31:16;102250.98;;;5.23;70.28
70521;BME280;58442;52.716;23.560;2024-02-16T00:31:27;102253.67;;;5.23;70.28
70521;BME280;58442;52.716;23.560;2024-02-16T00:31:39;102248.56;;;5.21;70.28
70521;BME280;58442;52.716;23.560;2024-02-16T00:31:50;102252.06;;;5.22;70.29
70521;BME280;58442;52.716;23.560;2024-02-16T00:32:01;102249.38;;;5.22;70.28
70521;BME280;58442;52.716;23.560;2024-02-16T00:32:14;102251.25;;;5.21;70.28
70521;BME280;58442;52.716;23.560;2024-02-16T00:32:26;102247.72;;;5.21;70.28
70521;BME280;58442;52.716;23.560;2024-02-16T00:32:41;102252.06;;;5.22;70.12
70521;BME280;58442;52.716;23.560;2024-02-16T00:32:52;102249.38;;;5.22;70.29
70521;BME280;58442;52.716;23.560;2024-02-16T00:33:03;102251.25;;;5.21;70.29
70521;BME280;58442;52.716;23.560;2024-02-16T00:33:15;102250.42;;;5.21;70.29
70521;BME280;58442;52.716;23.560;2024-02-16T00:33:29;102253.12;;;5.21;70.31
70521;BME280;58442;52.716;23.560;2024-02-16T00:33:40;102251.25;;;5.21;70.31
70521;BME280;58442;52.716;23.560;2024-02-16T00:33:52;102253.95;;;5.21;70.31
70521;BME280;58442;52.716;23.560;2024-02-16T00:34:03;102259.34;;;5.21;70.31
70521;BME280;58442;52.716;23.560;2024-02-16T00:34:15;102253.12;;;5.21;70.31
70521;BME280;58442;52.716;23.560;2024-02-16T00:34:26;102258.50;;;5.21;70.31
70521;BME280;58442;52.716;23.560;2024-02-16T00:34:38;102248.01;;;5.19;70.30
70521;BME280;58442;52.716;23.560;2024-02-16T00:34:51;102255.81;;;5.21;70.31
70521;BME280;58442;52.716;23.560;2024-02-16T00:35:06;102254.20;;;5.20;70.32
70521;BME280;58442;52.716;23.560;2024-02-16T00:35:17;102247.72;;;5.21;70.32
70521;BME280;58442;52.716;23.560;2024-02-16T00:35:29;102247.72;;;5.21;70.31
70521;BME280;58442;52.716;23.560;2024-02-16T00:35:44;102249.62;;;5.20;70.32
70521;BME280;58442;52.716;23.560;2024-02-16T00:35:55;102248.80;;;5.20;70.32
70521;BME280;58442;52.716;23.560;2024-02-16T00:36:06;102246.12;;;5.20;70.30
70521;BME280;58442;52.716;23.560;2024-02-16T00:36:17;102252.30;;;5.20;70.29
70521;BME280;58442;52.716;23.560;2024-02-16T00:36:29;102248.80;;;5.20;70.30
70521;BME280;58442;52.716;23.560;2024-02-16T00:36:41;102246.91;;;5.20;70.29
70521;BME280;58442;52.716;23.560;2024-02-16T00:36:52;102254.20;;;5.20;70.30
70521;BME280;58442;52.716;23.560;2024-02-16T00:37:03;102259.59;;;5.20;70.32
70521;BME280;58442;52.716;23.560;2024-02-16T00:37:20;102256.90;;;5.20;70.32
70521;BME280;58442;52.716;23.560;2024-02-16T00:37:32;102251.49;;;5.20;70.30
70521;BME280;58442;52.716;23.560;2024-02-16T00:37:43;102252.59;;;5.19;70.31
70521;BME280;58442;52.716;23.560;2024-02-16T00:37:56;102256.09;;;5.19;70.30
70521;BME280;58442;52.716;23.560;2024-02-16T00:38:07;102249.90;;;5.19;70.31
70521;BME280;58442;52.716;23.560;2024-02-16T00:38:18;102255.29;;;5.19;70.32
70521;BME280;58442;52.716;23.560;2024-02-16T00:38:29;102249.09;;;5.18;70.32
70521;BME280;58442;52.716;23.560;2024-02-16T00:38:41;102249.09;;;5.18;70.32
70521;BME280;58442;52.716;23.560;2024-02-16T00:38:52;102257.17;;;5.18;70.32
70521;BME280;58442;52.716;23.560;2024-02-16T00:39:04;102259.86;;;5.18;70.32
70521;BME280;58442;52.716;23.560;2024-02-16T00:39:15;102253.67;;;5.18;70.33
70521;BME280;58442;52.716;23.560;2024-02-16T00:39:26;102254.48;;;5.18;70.35
70521;BME280;58442;52.716;23.560;2024-02-16T00:39:39;102252.59;;;5.19;70.36
70521;BME280;58442;52.716;23.560;2024-02-16T00:39:53;102252.87;;;5.17;70.36
70521;BME280;58442;52.716;23.560;2024-02-16T00:40:07;102256.38;;;5.18;70.37
70521;BME280;58442;52.716;23.560;2024-02-16T00:40:18;102255.56;;;5.17;70.38
70521;BME280;58442;52.716;23.560;2024-02-16T00:40:29;102254.76;;;5.17;70.38
70521;BME280;58442;52.716;23.560;2024-02-16T00:40:41;102259.07;;;5.18;70.37
70521;BME280;58442;52.716;23.560;2024-02-16T00:40:55;102258.27;;;5.17;70.37
70521;BME280;58442;52.716;23.560;2024-02-16T00:41:06;102252.07;;;5.17;70.37
70521;BME280;58442;52.716;23.560;2024-02-16T00:41:22;102250.18;;;5.17;70.38
70521;BME280;58442;52.716;23.560;2024-02-16T00:41:33;102257.45;;;5.17;70.38
70521;BME280;58442;52.716;23.560;2024-02-16T00:41:45;102257.45;;;5.17;70.39
70521;BME280;58442;52.716;23.560;2024-02-16T00:41:57;102260.95;;;5.17;70.39
70521;BME280;58442;52.716;23.560;2024-02-16T00:42:09;102261.76;;;5.18;70.38
70521;BME280;58442;52.716;23.560;2024-02-16T00:42:22;102255.56;;;5.17;70.39
70521;BME280;58442;52.716;23.560;2024-02-16T00:42:38;102257.98;;;5.19;70.37
70521;BME280;58442;52.716;23.560;2024-02-16T00:42:50;102254.48;;;5.18;70.37
70521;BME280;58442;52.716;23.560;2024-02-16T00:43:01;102259.07;;;5.18;70.37
70521;BME280;58442;52.716;23.560;2024-02-16T00:43:15;102254.76;;;5.17;70.37
70521;BME280;58442;52.716;23.560;2024-02-16T00:43:26;102250.98;;;5.18;70.38
70521;BME280;58442;52.716;23.560;2024-02-16T00:43:38;102256.38;;;5.18;70.37
70521;BME280;58442;52.716;23.560;2024-02-16T00:43:50;102256.38;;;5.18;70.37
70521;BME280;58442;52.716;23.560;2024-02-16T00:44:03;102254.76;;;5.17;70.36
70521;BME280;58442;52.716;23.560;2024-02-16T00:44:14;102250.98;;;5.18;70.36
70521;BME280;58442;52.716;23.560;2024-02-16T00:44:25;102253.67;;;5.18;70.36
70521;BME280;58442;52.716;23.560;2024-02-16T00:44:37;102257.45;;;5.17;70.36
70521;BME280;58442;52.716;23.560;2024-02-16T00:44:48;102252.07;;;5.17;70.37
70521;BME280;58442;52.716;23.560;2024-02-16T00:44:59;102250.45;;;5.16;70.36
70521;BME280;58442;52.716;23.560;2024-02-16T00:45:14;102254.76;;;5.17;70.38
70521;BME280;58442;52.716;23.560;2024-02-16T00:45:26;102258.27;;;5.17;70.38
70521;BME280;58442;52.716;23.560;2024-02-16T00:45:37;102252.07;;;5.17;70.38
70521;BME280;58442;52.716;23.560;2024-02-16T00:45:49;102256.66;;;5.16;70.38
70521;BME280;58442;52.716;23.560;2024-02-16T00:46:00;102257.45;;;5.17;70.38
70521;BME280;58442;52.716;23.560;2024-02-16T00:46:11;102256.66;;;5.16;70.39
70521;BME280;58442;52.716;23.560;2024-02-16T00:46:23;102255.84;;;5.16;70.39
70521;BME280;58442;52.716;23.560;2024-02-16T00:46:35;102260.15;;;5.17;70.41
70521;BME280;58442;52.716;23.560;2024-02-16T00:46:47;102267.42;;;5.16;70.41
70521;BME280;58442;52.716;23.560;2024-02-16T00:46:58;102256.66;;;5.16;70.40
70521;BME280;58442;52.716;23.560;2024-02-16T00:47:09;102256.66;;;5.16;70.40
70521;BME280;58442;52.716;23.560;2024-02-16T00:47:21;102266.63;;;5.16;70.41
70521;BME280;58442;52.716;23.560;2024-02-16T00:47:34;102253.96;;;5.16;70.41
70521;BME280;58442;52.716;23.560;2024-02-16T00:47:45;102252.07;;;5.17;70.42
70521;BME280;58442;52.716;23.560;2024-02-16T00:47:57;102256.66;;;5.16;70.42
70521;BME280;58442;52.716;23.560;2024-02-16T00:48:08;102265.53;;;5.17;70.42
70521;BME280;58442;52.716;23.560;2024-02-16T00:48:19;102255.84;;;5.16;70.42
70521;BME280;58442;52.716;23.560;2024-02-16T00:48:31;102259.34;;;5.16;70.42
70521;BME280;58442;52.716;23.560;2024-02-16T00:48:42;102256.66;;;5.16;70.43
70521;BME280;58442;52.716;23.560;2024-02-16T00:48:54;102260.15;;;5.17;70.43
70521;BME280;58442;52.716;23.560;2024-02-16T00:49:05;102261.23;;;5.16;70.43
70521;BME280;58442;52.716;23.560;2024-02-16T00:49:16;102256.66;;;5.16;70.42
70521;BME280;58442;52.716;23.560;2024-02-16T00:49:27;102256.66;;;5.16;70.40
70521;BME280;58442;52.716;23.560;2024-02-16T00:49:39;102255.84;;;5.16;70.40
70521;BME280;58442;52.716;23.560;2024-02-16T00:49:50;102255.84;;;5.16;70.40
70521;BME280;58442;52.716;23.560;2024-02-16T00:50:01;102255.84;;;5.16;70.40
70521;BME280;58442;52.716;23.560;2024-02-16T00:50:16;102261.23;;;5.16;70.40
70521;BME280;58442;52.716;23.560;2024-02-16T00:50:27;102259.63;;;5.15;70.41
70521;BME280;58442;52.716;23.560;2024-02-16T00:50:38;102259.63;;;5.15;70.41
70521;BME280;58442;52.716;23.560;2024-02-16T00:50:50;102261.23;;;5.16;70.40
70521;BME280;58442;52.716;23.560;2024-02-16T00:51:01;102255.84;;;5.16;70.42
70521;BME280;58442;52.716;23.560;2024-02-16T00:51:12;102261.23;;;5.16;70.42
70521;BME280;58442;52.716;23.560;2024-02-16T00:51:24;102265.01;;;5.15;70.42
70521;BME280;58442;52.716;23.560;2024-02-16T00:51:37;102256.93;;;5.15;70.43
70521;BME280;58442;52.716;23.560;2024-02-16T00:51:49;102254.23;;;5.15;70.42
70521;BME280;58442;52.716;23.560;2024-02-16T00:52:01;102259.63;;;5.15;70.42
70521;BME280;58442;52.716;23.560;2024-02-16T00:52:16;102256.93;;;5.15;70.42
70521;BME280;58442;52.716;23.560;2024-02-16T00:52:28;102256.93;;;5.15;70.43
70521;BME280;58442;52.716;23.560;2024-02-16T00:52:40;102263.38;;;5.14;70.44
70521;BME280;58442;52.716;23.560;2024-02-16T00:52:51;102257.98;;;5.14;70.44
70521;BME280;58442;52.716;23.560;2024-02-16T00:53:02;102260.43;;;5.15;70.43
70521;BME280;58442;52.716;23.560;2024-02-16T00:53:15;102254.23;;;5.15;70.44
70521;BME280;58442;52.716;23.560;2024-02-16T00:53:26;102259.07;;;5.13;70.45
70521;BME280;58442;52.716;23.560;2024-02-16T00:53:37;102263.38;;;5.14;70.45
70521;BME280;58442;52.716;23.560;2024-02-16T00:53:49;102257.98;;;5.14;70.45
70521;BME280;58442;52.716;23.560;2024-02-16T00:54:00;102262.32;;;5.15;70.45
70521;BME280;58442;52.716;23.560;2024-02-16T00:54:11;102258.79;;;5.14;70.46
70521;BME280;58442;52.716;23.560;2024-02-16T00:54:22;102259.88;;;5.13;70.51
70521;BME280;58442;52.716;23.560;2024-02-16T00:54:33;102262.32;;;5.15;70.46
70521;BME280;58442;52.716;23.560;2024-02-16T00:54:45;102263.38;;;5.14;70.46
70521;BME280;58442;52.716;23.560;2024-02-16T00:54:57;102263.38;;;5.14;70.46
70521;BME280;58442;52.716;23.560;2024-02-16T00:55:08;102261.48;;;5.14;70.45
70521;BME280;58442;52.716;23.560;2024-02-16T00:55:20;102262.32;;;5.15;70.44
70521;BME280;58442;52.716;23.560;2024-02-16T00:55:31;102257.98;;;5.14;70.44
70521;BME280;58442;52.716;23.560;2024-02-16T00:55:43;102260.43;;;5.15;70.44
70521;BME280;58442;52.716;23.560;2024-02-16T00:55:56;102265.01;;;5.15;70.44
70521;BME280;58442;52.716;23.560;2024-02-16T00:56:08;102261.48;;;5.14;70.44
70521;BME280;58442;52.716;23.560;2024-02-16T00:56:19;102262.57;;;5.13;70.44
70521;BME280;58442;52.716;23.560;2024-02-16T00:56:34;102257.98;;;5.14;70.44
70521;BME280;58442;52.716;23.560;2024-02-16T00:56:45;102258.79;;;5.14;70.44
70521;BME280;58442;52.716;23.560;2024-02-16T00:56:58;102257.98;;;5.14;70.44
70521;BME280;58442;52.716;23.560;2024-02-16T00:57:13;102257.19;;;5.13;70.44
70521;BME280;58442;52.716;23.560;2024-02-16T00:57:25;102254.23;;;5.15;70.42
70521;BME280;58442;52.716;23.560;2024-02-16T00:57:36;102259.63;;;5.15;70.42
70521;BME280;58442;52.716;23.560;2024-02-16T00:57:47;102259.63;;;5.15;70.42
70521;BME280;58442;52.716;23.560;2024-02-16T00:57:59;102258.79;;;5.14;70.43
70521;BME280;58442;52.716;23.560;2024-02-16T00:58:10;102256.09;;;5.14;70.42
70521;BME280;58442;52.716;23.560;2024-02-16T00:58:21;102252.87;;;5.12;70.43
70521;BME280;58442;52.716;23.560;2024-02-16T00:58:33;102252.59;;;5.14;70.43
70521;BME280;58442;52.716;23.560;2024-02-16T00:58:44;102254.48;;;5.13;70.42
70521;BME280;58442;52.716;23.560;2024-02-16T00:58:55;102256.38;;;5.13;70.42
70521;BME280;58442;52.716;23.560;2024-02-16T00:59:06;102250.98;;;5.13;70.42
70521;BME280;58442;52.716;23.560;2024-02-16T00:59:20;102260.96;;;5.12;70.42
70521;BME280;58442;52.716;23.560;2024-02-16T00:59:32;102255.56;;;5.12;70.42
70521;BME280;58442;52.716;23.560;2024-02-16T00:59:43;102260.96;;;5.12;70.43
70521;BME280;58442;52.716;23.560;2024-02-16T00:59:54;102254.77;;;5.12;70.44
70521;BME280;58442;52.716;23.560;2024-02-16T01:00:07;102260.15;;;5.12;70.45
70521;BME280;58442;52.716;23.560;2024-02-16T01:00:20;102254.77;;;5.12;70.45
70521;BME280;58442;52.716;23.560;2024-02-16T01:00:34;102259.35;;;5.11;70.46
70521;BME280;58442;52.716;23.560;2024-02-16T01:00:46;102254.77;;;5.12;70.46
70521;BME280;58442;52.716;23.560;2024-02-16T01:00:58;102258.54;;;5.11;70.47
70521;BME280;58442;52.716;23.560;2024-02-16T01:01:09;102250.46;;;5.11;70.47
70521;BME280;58442;52.716;23.560;2024-02-16T01:01:23;102258.54;;;5.11;70.48
70521;BME280;58442;52.716;23.560;2024-02-16T01:01:36;102250.46;;;5.11;70.48
70521;BME280;58442;52.716;23.560;2024-02-16T01:01:48;102257.74;;;5.10;70.49
70521;BME280;58442;52.716;23.560;2024-02-16T01:02:00;102261.23;;;5.11;70.48